Terminal Aerodrome Forecast
Issued by NWS

Home | Current Version | Previous Version | Text Only | Print | Product List | Glossary On
Versions: 1 2 3 4 5 6 7 8 9 10 11 12 13 14 15 16
000
FTUS44 KMAF 012300 RRA
TAFPEQ
TAF
KPEQ 012347Z 0200/0224 21007KT P6SM SKC
     FM020100 10010KT P6SM SKC
     FM021000 09005KT P6SM SKC
     FM021400 06010KT P6SM FEW150=

USA.gov is the U.S. government's official web portal to all federal, state and local government web resources and services.